KSAT/SAT METAR and TAF weather

Enter ICAO airport designator
Station Type Date Time Source
KSAT METAR 2019/06/16 12:51 UTC NOAA

KSAT 161251Z 17012KT 10SM BKN017 OVC028 26/22 A2988 RMK AO2 SLP098 T02610217


Station Type Date Time Source
KSAT Decoded METAR 2019/06/16 12:51 UTC NOAA

SAN ANTONIO INTERNATIONAL AIRPORT , TX, United States (KSAT) 29-32N 098-28W 243M
Jun 16, 2019 - 08:51 AM EDT / 2019.06.16 1251 UTC
Wind: from the S (170 degrees) at 14 MPH (12 KT):0
Visibility: 10 mile(s):0
Sky conditions: overcast
Temperature: 79.0 F (26.1 C)
Dew Point: 71.1 F (21.7 C)
Relative Humidity: 76%
Pressure (altimeter): 29.88 in. Hg (1011 hPa)
ob: KSAT 161251Z 17012KT 10SM BKN017 OVC028 26/22 A2988 RMK AO2 SLP098 T02610217
cycle: 13

Station Type Date Time Source
KSAT TAF 2019/06/16 12:40 UTC NOAA

TAF KSAT 161138Z 1612/1718 16012KT P6SM OVC020
FM161600 18013G23KT P6SM BKN035
FM161800 18013G23KT P6SM VCTS BKN050CB
FM170100 14013KT P6SM VCTS OVC070CB
FM170600 10008KT P6SM VCTS OVC035CB

Example: see airport list